Norwalk, IA (50211)

5:00 AM CDT on April 02, 2015 (GMT -0500)
Norwalk, IA (2mi SW) | | Change Station
CLOSE
Current Station
Personal Weather Station
Location: Norwalk, IA
Elevation: 919 ft
Nearby Weather Stations

Elev 919 ft 41.46 °N, 93.71 °W | Updated 9 seconds ago

Rain
Rain
53.6 °F
Feels Like 53.6 °F
N
8.3
Wind Variable Wind from NE
Gusts 9.8 mph

Today
High -- | Low -- °F
--% Chance of Precip.
Yesterday
High -- | Low -- °F
Precip. -- in
6:56 AM 7:40 PM
Waxing Gibbous, 96% visible
Pressure 29.67 in
Visibility 10.0 miles
Clouds Mostly Cloudy 800 ft
Mostly Cloudy 1200 ft
Overcast 11000 ft
Dew Point 53 °F
Humidity 97%
Rainfall 0.40 in
Snow Depth Not available.
UV 0 out of 12
Pollen 10.00 out of 12
Air Quality Not available.
Flu Activity Not available.
METAR KDSM 020954Z 03017G21KT 10SM -RA BKN008 BKN012 OVC110 13/10 A2968 RMK AO2 SLP045 P0017 T01330100

More Conditions Fewer Conditions

Pressure 29.67 in
Visibility 10.0 miles
Clouds Mostly Cloudy 800 ft
Mostly Cloudy 1200 ft
Overcast 11000 ft
Dew Point 53 °F
Humidity 97%
Rainfall 0.40 in
Snow Depth Not available.
UV 0 out of 12
Pollen 10.00 out of 12
Air Quality Not available.
Flu Activity Not available.
METAR KDSM 020954Z 03017G21KT 10SM -RA BKN008 BKN012 OVC110 13/10 A2968 RMK AO2 SLP045 P0017 T01330100

More Conditions Fewer Conditions

10-Day Weather Forecast

Almanac

Astronomy

Apr. 02, 2015 Rise Set
Actual Time
Civil Twilight
Nautical Twilight
Astronomical Twilight
Moon
Length of Visible Light
Length of Day
Tomorrow will be .
, % of the Moon is Illuminated

Today's Extremes

State Highs State Lows

Community

WunderPhotos

Upload Photos

1,810,216 photos uploaded!

WunderBlogs® & News

Nearby

Air Quality

  Air Quality AQ Index Pollutant
Not available.

Snow Depth

Station Depth Elevation

Earthquake Activity

City Distance Mag. Time & Date
Minimum magnitude displayed is 2.5.

Coastal Water Temperatures

Place Temperature

Stations

Nearby Weather Stations

Station Location Temp. Windchill Dew Point Humidity Wind Precip. Elev Updated Type